Time;durP1;ratioP1;P1;durP2;ratioP2;P2;SDS_P1;SDS_P2;PMS_P1;PMS_P2;Temp;Humidity;BMP_temperature;BMP_pressure;BME280_temperature;BME280_humidity;BME280_pressure;Samples;Min_cycle;Max_cycle;Signal;HPM_P1;HPM_P2
2022/08/20 00:08:34;;;;;;;4.32;2.58;;;;;;;16.05;100.00;97869.56;18233127;32;20059;-61
2022/08/20 00:18:38;;;;;;;4.37;2.17;;;;;;;15.97;100.00;97872.97;18232518;32;20063;-61
2022/08/20 00:28:40;;;;;;;2.50;2.17;;;;;;;15.86;100.00;97875.88;18205890;32;20069;-61
2022/08/20 00:38:45;;;;;;;2.50;2.30;;;;;;;15.84;100.00;97874.56;18216770;32;20054;-62
2022/08/20 00:48:51;;;;;;;5.28;2.40;;;;;;;15.93;100.00;97879.00;18231017;32;20062;-62
2022/08/20 00:58:53;;;;;;;2.58;2.08;;;;;;;16.00;100.00;97875.91;18216620;32;20121;-62
2022/08/20 01:08:57;;;;;;;2.72;2.12;;;;;;;15.95;100.00;97876.00;18230650;32;20097;-62
2022/08/20 01:19:01;;;;;;;4.50;2.03;;;;;;;15.83;100.00;97884.66;18215921;32;20077;-61
2022/08/20 01:29:28;;;;;;;2.23;1.67;;;;;;;15.85;100.00;97892.53;18215648;32;20063;-62
2022/08/20 01:39:34;;;;;;;3.15;1.92;;;;;;;15.95;100.00;97897.00;18229561;32;20081;-62
2022/08/20 01:49:42;;;;;;;3.03;2.45;;;;;;;16.03;100.00;97897.13;18237552;32;20080;-62
2022/08/20 01:59:48;;;;;;;2.85;1.92;;;;;;;16.00;100.00;97895.00;18238303;32;20438;-62
2022/08/20 02:09:51;;;;;;;2.25;2.00;;;;;;;15.96;100.00;97898.63;18224830;32;20054;-62
2022/08/20 02:20:00;;;;;;;2.42;1.80;;;;;;;16.00;100.00;97899.66;18237465;32;20076;-62
2022/08/20 02:30:09;;;;;;;3.70;2.60;;;;;;;16.06;100.00;97882.06;18237424;32;20058;-62
2022/08/20 02:40:27;;;;;;;3.08;2.50;;;;;;;16.11;100.00;97886.62;18237107;32;20077;-62
2022/08/20 02:50:32;;;;;;;3.03;2.72;;;;;;;16.17;100.00;97888.97;18236701;32;20062;-63
2022/08/20 03:00:35;;;;;;;4.85;3.80;;;;;;;16.20;100.00;97888.38;18235178;32;20051;-63
2022/08/20 03:10:42;;;;;;;3.33;2.60;;;;;;;16.25;100.00;97868.34;18235737;32;20102;-62
2022/08/20 03:20:46;;;;;;;4.05;3.45;;;;;;;16.29;100.00;97869.38;18235177;32;20339;-62
2022/08/20 03:30:55;;;;;;;4.93;3.95;;;;;;;16.36;100.00;97868.97;18234996;32;20430;-62
2022/08/20 03:40:58;;;;;;;5.18;4.30;;;;;;;16.41;100.00;97877.06;18220431;32;20395;-61
2022/08/20 03:51:01;;;;;;;7.18;5.50;;;;;;;16.46;100.00;97874.22;18219762;32;20070;-62
2022/08/20 04:01:05;;;;;;;4.87;4.27;;;;;;;16.49;100.00;97857.25;18233054;32;20362;-62
2022/08/20 04:11:08;;;;;;;5.90;5.03;;;;;;;16.48;100.00;97879.38;18232981;32;20054;-62
2022/08/20 04:21:11;;;;;;;4.85;4.15;;;;;;;16.48;100.00;97876.66;18232263;32;20085;-62
2022/08/20 04:31:13;;;;;;;5.55;4.40;;;;;;;16.46;100.00;97885.16;18232047;32;20077;-62
2022/08/20 04:41:17;;;;;;;4.50;3.53;;;;;;;16.52;100.00;97897.56;18231596;32;20069;-62
2022/08/20 04:51:24;;;;;;;5.03;4.15;;;;;;;16.66;100.00;97902.22;18217624;32;20074;-62
2022/08/20 05:01:28;;;;;;;4.83;4.33;;;;;;;16.79;100.00;97904.13;18216744;32;20054;-62
2022/08/20 05:11:31;;;;;;;4.93;4.43;;;;;;;16.89;100.00;97919.53;18204662;32;20081;-62
2022/08/20 05:21:39;;;;;;;7.80;4.20;;;;;;;16.92;100.00;97925.19;18235675;32;20050;-62
2022/08/20 05:31:42;;;;;;;4.60;4.20;;;;;;;16.93;100.00;97926.00;18226591;32;20054;-62
2022/08/20 05:41:48;;;;;;;5.63;4.30;;;;;;;16.94;100.00;97917.50;18239468;32;20067;-62
2022/08/20 05:51:51;;;;;;;4.72;3.70;;;;;;;16.93;100.00;97943.19;18225088;32;20070;-62
2022/08/20 06:01:53;;;;;;;6.97;4.43;;;;;;;16.99;100.00;97941.16;18212049;32;20070;-62
2022/08/20 06:11:58;;;;;;;5.90;4.47;;;;;;;17.08;100.00;97952.19;18238409;32;20062;-62
2022/08/20 06:22:02;;;;;;;5.30;4.53;;;;;;;17.13;100.00;97957.56;18237603;32;20100;-62
2022/08/20 06:32:25;;;;;;;4.93;4.43;;;;;;;17.19;100.00;97959.03;18236510;32;20078;-62
2022/08/20 06:42:35;;;;;;;5.25;4.32;;;;;;;17.20;100.00;97966.13;18237412;32;20058;-62
2022/08/20 06:52:41;;;;;;;3.70;3.12;;;;;;;17.26;100.00;97970.34;18222862;32;20362;-62
2022/08/20 07:02:54;;;;;;;3.90;2.90;;;;;;;17.24;100.00;97972.59;18235696;32;20101;-63
2022/08/20 07:12:59;;;;;;;4.33;2.00;;;;;;;17.34;100.00;97978.97;18221868;32;20102;-63
2022/08/20 07:23:01;;;;;;;1.52;1.20;;;;;;;17.52;100.00;97979.94;18234928;32;20058;-63
2022/08/20 07:33:05;;;;;;;1.63;0.97;;;;;;;17.81;100.00;97989.66;18196383;32;20372;-63
2022/08/20 07:43:09;;;;;;;;;;;;;;;18.07;100.00;98000.84;18207781;32;20077;-63
2022/08/20 07:53:12;;;;;;;;;;;;;;;18.58;100.00;97994.06;18234184;32;19960;-63
2022/08/20 08:03:15;;;;;;;2.00;1.10;;;;;;;19.25;100.00;98011.44;18206892;32;19964;-63
2022/08/20 08:13:18;;;;;;;1.70;0.90;;;;;;;19.79;100.00;98011.16;18232690;32;20113;-63
2022/08/20 08:23:22;;;;;;;1.85;1.25;;;;;;;20.15;100.00;98011.97;18218832;32;20098;-63
2022/08/20 08:33:33;;;;;;;1.77;1.30;;;;;;;20.42;100.00;98008.06;18219581;32;20081;-63
2022/08/20 08:43:36;;;;;;;0.68;0.30;;;;;;;20.83;100.00;98019.63;18218248;32;20058;-63
2022/08/20 08:53:52;;;;;;;0.70;0.40;;;;;;;20.57;100.00;98016.91;18233532;32;20074;-62
2022/08/20 09:03:54;;;;;;;0.70;0.10;;;;;;;20.90;100.00;98022.66;18177676;32;20077;-62
2022/08/20 09:13:58;;;;;;;1.00;0.35;;;;;;;21.69;100.00;98019.47;18177803;32;20113;-62
2022/08/20 09:24:01;;;;;;;0.30;0.30;;;;;;;21.71;98.28;98010.88;18177898;32;20065;-62
2022/08/20 09:34:05;;;;;;;0.95;0.37;;;;;;;21.60;99.86;98016.78;18177096;32;20396;-62
2022/08/20 09:44:08;;;;;;;0.50;0.30;;;;;;;21.92;97.24;98011.69;18175317;32;20071;-62
2022/08/20 09:54:11;;;;;;;0.60;0.30;;;;;;;22.32;93.93;98008.41;18173710;32;20071;-62
2022/08/20 10:04:14;;;;;;;0.60;0.30;;;;;;;22.56;92.29;98011.63;18173332;32;20077;-62
2022/08/20 10:14:17;;;;;;;1.65;0.40;;;;;;;23.23;91.32;98001.25;18175589;32;20103;-62
2022/08/20 10:24:21;;;;;;;2.40;0.30;;;;;;;22.54;87.19;98003.66;18174116;32;20084;-62
2022/08/20 10:34:25;;;;;;;1.80;0.40;;;;;;;22.23;91.75;98002.19;18160982;32;20415;-62
2022/08/20 10:44:27;;;;;;;0.73;0.47;;;;;;;23.58;86.57;98005.44;18174244;32;20074;-62
2022/08/20 10:54:30;;;;;;;1.73;0.75;;;;;;;23.47;86.19;97983.03;18174033;32;20066;-62
2022/08/20 11:04:34;;;;;;;4.05;0.75;;;;;;;24.55;81.72;97996.34;18228104;32;20110;-62
2022/08/20 11:14:37;;;;;;;2.03;0.47;;;;;;;24.40;79.28;97989.63;18221736;32;20432;-61
2022/08/20 11:24:40;;;;;;;0.70;0.30;;;;;;;23.14;89.20;97993.06;18235071;32;20098;-62
2022/08/20 11:34:48;;;;;;;1.08;0.50;;;;;;;24.00;79.47;97994.88;18234981;32;20069;-62
2022/08/20 11:44:51;;;;;;;0.20;0.20;;;;;;;24.58;76.50;97984.56;18234345;32;20059;-63
2022/08/20 11:54:55;;;;;;;0.50;0.35;;;;;;;25.31;69.00;97976.88;18220485;32;20054;-63
2022/08/20 12:04:59;;;;;;;0.68;0.28;;;;;;;24.20;71.59;97972.91;18232694;32;20387;-63
2022/08/20 12:15:04;;;;;;;0.62;0.32;;;;;;;23.48;80.30;97971.63;18219286;32;20094;-62
2022/08/20 12:25:07;;;;;;;0.45;0.37;;;;;;;24.39;79.20;97971.44;18232324;32;20454;-62
2022/08/20 12:35:11;;;;;;;0.37;0.30;;;;;;;25.21;74.33;97961.62;18231811;32;20081;-62
2022/08/20 12:45:16;;;;;;;0.70;0.20;;;;;;;25.56;71.24;97952.56;18217943;32;20062;-62
2022/08/20 12:55:19;;;;;;;0.20;0.10;;;;;;;25.01;70.03;97953.28;18231016;32;20062;-62
2022/08/20 13:05:23;;;;;;;0.93;0.10;;;;;;;25.76;77.81;97944.25;18230468;32;20434;-62
2022/08/20 13:15:27;;;;;;;0.10;0.10;;;;;;;26.89;64.56;97940.41;18230304;32;20089;-63
2022/08/20 13:25:31;;;;;;;0.65;0.20;;;;;;;27.14;55.23;97940.78;18215989;32;20066;-62
2022/08/20 13:35:35;;;;;;;4.40;0.20;;;;;;;27.77;59.21;97943.25;18215924;32;20110;-62
2022/08/20 13:45:40;;;;;;;0.93;0.30;;;;;;;27.97;61.49;97930.78;18237882;32;20070;-62
2022/08/20 13:55:44;;;;;;;6.87;0.30;;;;;;;27.24;56.37;97928.22;18239128;32;20066;-62
2022/08/20 14:05:47;;;;;;;0.25;0.10;;;;;;;26.43;56.01;97929.31;18224803;32;20058;-63
2022/08/20 14:15:50;;;;;;;0.77;0.28;;;;;;;24.96;64.37;97939.72;18238242;32;20088;-62
2022/08/20 14:25:53;;;;;;;0.57;0.28;;;;;;;24.12;71.50;97941.53;18237674;32;20077;-62
2022/08/20 14:35:57;;;;;;;0.47;0.20;;;;;;;24.00;74.55;97920.28;18237668;32;20122;-62
2022/08/20 14:46:00;;;;;;;0.20;0.20;;;;;;;25.03;76.29;97936.31;18222945;32;20159;-62
2022/08/20 14:56:03;;;;;;;0.47;0.35;;;;;;;24.59;71.44;97928.13;18235711;32;20468;-62
2022/08/20 15:06:06;;;;;;;0.28;0.20;;;;;;;24.59;72.54;97923.38;18222268;32;20063;-63
2022/08/20 15:16:24;;;;;;;0.30;0.20;;;;;;;24.55;80.11;97930.78;18224001;32;20066;-63
2022/08/20 15:26:30;;;;;;;0.20;0.20;;;;;;;24.65;74.70;97913.72;18222158;32;20080;-62
2022/08/20 15:36:33;;;;;;;0.70;0.30;;;;;;;24.13;78.97;97910.00;18234885;32;20081;-62
2022/08/20 15:46:35;;;;;;;;;;;;;;;23.64;78.08;97897.19;18234643;32;20438;-62
2022/08/20 15:57:01;;;;;;;0.40;0.30;;;;;;;23.55;80.02;97884.69;18219684;32;19993;-62
2022/08/20 16:07:14;;;;;;;1.95;0.30;;;;;;;23.82;76.65;97880.34;18208833;32;20098;-62
2022/08/20 16:17:32;;;;;;;1.12;0.45;;;;;;;24.08;77.29;97890.09;18233061;32;20122;-62
2022/08/20 16:27:59;;;;;;;0.50;0.43;;;;;;;23.75;72.55;97889.22;18232721;32;20054;-62
2022/08/20 16:38:33;;;;;;;0.75;0.30;;;;;;;23.38;74.04;97900.41;18232001;32;20423;-63
2022/08/20 16:48:40;;;;;;;0.30;0.22;;;;;;;23.29;71.50;97906.03;18217674;32;20402;-62
2022/08/20 16:58:45;;;;;;;1.00;0.35;;;;;;;23.91;71.88;97922.41;18217574;32;20427;-63
2022/08/20 17:08:49;;;;;;;3.55;0.40;;;;;;;23.45;75.00;97913.59;18230796;32;20107;-62
2022/08/20 17:19:06;;;;;;;0.45;0.37;;;;;;;22.62;81.00;97914.56;18223780;32;20066;-62
2022/08/20 17:29:32;;;;;;;1.10;0.35;;;;;;;22.00;86.04;97902.63;18240247;32;20062;-63
2022/08/20 17:39:50;;;;;;;0.60;0.50;;;;;;;21.53;89.80;97900.97;18239741;32;20407;-62
2022/08/20 17:50:02;;;;;;;2.42;0.40;;;;;;;21.17;92.94;97910.59;18225812;32;20058;-63
2022/08/20 18:00:22;;;;;;;1.05;0.40;;;;;;;20.81;94.79;97922.94;18238304;32;20062;-62
2022/08/20 18:10:28;;;;;;;0.57;0.43;;;;;;;20.45;97.38;97922.25;18238599;32;20070;-62
2022/08/20 18:20:52;;;;;;;0.90;0.40;;;;;;;20.10;99.05;97913.31;18224803;32;20434;-62
2022/08/20 18:31:01;;;;;;;0.70;0.40;;;;;;;19.73;100.00;97923.84;18223847;32;20066;-62
2022/08/20 18:41:28;;;;;;;0.45;0.20;;;;;;;19.39;100.00;97923.53;18237260;32;20059;-62
2022/08/20 18:51:41;;;;;;;2.80;0.57;;;;;;;19.11;100.00;97925.75;18237055;32;20046;-62
2022/08/20 19:01:48;;;;;;;0.50;0.40;;;;;;;18.86;100.00;97939.06;18236044;32;20081;-62
2022/08/20 19:12:03;;;;;;;0.40;0.40;;;;;;;18.59;100.00;97940.88;18222613;32;20362;-62
2022/08/20 19:22:20;;;;;;;0.75;0.40;;;;;;;18.35;100.00;97941.28;18221632;32;20189;-62
2022/08/20 19:32:30;;;;;;;0.95;0.40;;;;;;;18.14;100.00;97945.66;18221057;32;20503;-62
2022/08/20 19:42:42;;;;;;;2.60;0.30;;;;;;;17.93;100.00;97944.25;18220419;32;20487;-62
2022/08/20 19:53:37;;;;;;;1.70;0.40;;;;;;;17.80;100.00;97947.81;18221264;32;20058;-62
2022/08/20 20:03:54;;;;;;;0.80;0.50;;;;;;;17.70;100.00;97951.59;18233302;32;20111;-62
2022/08/20 20:14:14;;;;;;;1.65;0.50;;;;;;;17.60;100.00;97955.38;18233159;32;20073;-62
2022/08/20 20:24:43;;;;;;;1.05;0.68;;;;;;;17.42;100.00;97953.63;18232420;32;20158;-63
2022/08/20 20:34:57;;;;;;;2.40;0.82;;;;;;;17.23;100.00;97949.13;18218091;32;20069;-62
2022/08/20 20:45:29;;;;;;;1.30;0.62;;;;;;;17.09;100.00;97951.88;18231558;32;20099;-62
2022/08/20 20:55:36;;;;;;;0.70;0.60;;;;;;;17.03;100.00;97957.75;18226388;32;20058;-62
2022/08/20 21:05:39;;;;;;;1.10;0.68;;;;;;;16.93;100.00;97948.66;18241833;32;20081;-62
2022/08/20 21:15:44;;;;;;;0.43;0.37;;;;;;;16.76;100.00;97948.44;18227685;32;20055;-62
2022/08/20 21:25:55;;;;;;;1.45;0.65;;;;;;;16.64;100.00;97956.34;18240981;32;20144;-62
2022/08/20 21:36:11;;;;;;;1.55;0.70;;;;;;;16.49;100.00;97960.97;18240287;32;20073;-62
2022/08/20 21:46:27;;;;;;;1.70;0.95;;;;;;;16.34;100.00;97969.44;18239679;32;20077;-62
2022/08/20 21:56:41;;;;;;;1.48;0.70;;;;;;;16.20;100.00;97970.22;18238916;32;20134;-62
2022/08/20 22:06:58;;;;;;;1.90;1.08;;;;;;;16.07;100.00;97960.91;18238551;32;20058;-62
2022/08/20 22:17:20;;;;;;;1.77;1.00;;;;;;;15.97;100.00;97955.59;18226912;32;20471;-62
2022/08/20 22:27:26;;;;;;;4.47;1.30;;;;;;;15.95;100.00;97962.44;18224574;32;20395;-62
2022/08/20 22:37:36;;;;;;;1.25;0.95;;;;;;;15.87;100.00;97955.78;18237580;32;20059;-62
2022/08/20 22:47:45;;;;;;;2.00;0.90;;;;;;;15.66;100.00;97950.59;18236826;32;20106;-62
2022/08/20 22:57:54;;;;;;;5.90;1.20;;;;;;;15.56;100.00;97954.28;18236487;32;20066;-62
2022/08/20 23:08:01;;;;;;;3.53;0.62;;;;;;;15.46;100.00;97953.63;18236131;32;20050;-62
2022/08/20 23:18:12;;;;;;;2.15;1.10;;;;;;;15.29;100.00;97954.16;18234761;32;20074;-62
2022/08/20 23:28:41;;;;;;;2.10;0.95;;;;;;;15.19;100.00;97936.03;18221945;32;20106;-62
2022/08/20 23:38:46;;;;;;;1.30;0.60;;;;;;;15.02;100.00;97942.78;18234898;32;20100;-62
2022/08/20 23:48:52;;;;;;;9.52;1.23;;;;;;;14.95;100.00;97944.25;18234559;32;20403;-62
2022/08/20 23:59:20;;;;;;;1.97;1.23;;;;;;;14.94;100.00;97934.44;18233693;32;20062;-62
